Time;durP1;ratioP1;P1;durP2;ratioP2;P2;SDS_P1;SDS_P2;PMS_P1;PMS_P2;Temp;Humidity;BMP_temperature;BMP_pressure;BME280_temperature;BME280_humidity;BME280_pressure;Samples;Min_cycle;Max_cycle;Signal;HPM_P1;HPM_P2
2023/07/16 00:01:56;;;;;;;2.80;2.60;;;24.40;71.40;;;;;;4954815;28;20201;-69
2023/07/16 00:04:22;;;;;;;2.65;2.45;;;24.40;71.60;;;;;;4968900;28;20318;-70
2023/07/16 00:06:48;;;;;;;3.30;3.00;;;24.30;71.60;;;;;;4971738;28;20297;-70
2023/07/16 00:09:13;;;;;;;3.60;3.25;;;24.30;71.60;;;;;;4966875;28;20190;-69
2023/07/16 00:11:39;;;;;;;2.92;2.72;;;24.30;71.60;;;;;;4971083;28;20269;-69
2023/07/16 00:14:05;;;;;;;2.72;2.53;;;24.40;71.80;;;;;;4954442;28;20582;-70
2023/07/16 00:16:31;;;;;;;3.60;2.63;;;24.40;71.70;;;;;;4959105;28;20178;-70
2023/07/16 00:18:56;;;;;;;3.15;2.90;;;24.30;71.60;;;;;;4959319;28;20186;-69
2023/07/16 00:21:23;;;;;;;2.75;2.55;;;24.30;71.60;;;;;;4969570;28;20217;-70
2023/07/16 00:23:49;;;;;;;2.70;2.50;;;24.40;71.70;;;;;;4970588;28;20256;-70
2023/07/16 00:26:15;;;;;;;3.20;3.00;;;24.30;71.60;;;;;;4966286;28;20186;-69
2023/07/16 00:28:41;;;;;;;3.10;2.67;;;24.30;71.60;;;;;;4970512;28;20224;-69
2023/07/16 00:31:06;;;;;;;2.42;2.22;;;24.30;71.60;;;;;;4970470;28;20189;-70
2023/07/16 00:33:32;;;;;;;2.97;2.67;;;24.40;71.80;;;;;;4954371;28;20206;-69
2023/07/16 00:35:58;;;;;;;2.80;2.50;;;24.30;71.70;;;;;;4953369;28;20225;-70
2023/07/16 00:38:24;;;;;;;3.03;2.38;;;24.30;71.70;;;;;;4970295;28;20644;-70
2023/07/16 00:40:50;;;;;;;3.58;3.00;;;24.30;71.70;;;;;;4954317;28;20616;-70
2023/07/16 00:43:16;;;;;;;2.92;2.72;;;24.30;71.60;;;;;;4970394;28;20228;-69
2023/07/16 00:45:45;;;;;;;2.60;2.40;;;24.30;71.60;;;;;;4960008;28;20202;-69
2023/07/16 00:48:12;;;;;;;2.40;2.30;;;24.30;71.50;;;;;;4971706;28;20311;-70
2023/07/16 00:50:40;;;;;;;3.78;2.70;;;24.30;71.30;;;;;;4966023;28;20189;-70
2023/07/16 00:53:08;;;;;;;2.50;2.30;;;24.30;71.40;;;;;;4967565;28;20245;-70
2023/07/16 00:55:36;;;;;;;2.10;2.00;;;24.30;71.30;;;;;;4973687;28;20197;-70
2023/07/16 00:58:06;;;;;;;2.30;2.10;;;24.30;71.40;;;;;;4974161;28;20196;-70
2023/07/16 01:00:37;;;;;;;2.25;2.10;;;24.30;71.50;;;;;;4966010;28;20265;-71
2023/07/16 01:03:11;;;;;;;2.65;2.45;;;24.40;71.70;;;;;;4974135;28;20217;-69
2023/07/16 01:05:42;;;;;;;2.42;2.22;;;24.30;71.60;;;;;;4966212;28;20207;-69
2023/07/16 01:08:11;;;;;;;2.67;2.30;;;24.30;71.60;;;;;;4955127;28;20603;-70
2023/07/16 01:10:41;;;;;;;2.17;1.98;;;24.30;71.60;;;;;;4973718;28;20181;-69
2023/07/16 01:13:07;;;;;;;2.35;2.15;;;24.30;71.40;;;;;;4955973;28;20695;-69
2023/07/16 01:15:33;;;;;;;3.33;2.60;;;24.30;71.40;;;;;;4974082;28;20185;-70
2023/07/16 01:18:00;;;;;;;2.40;2.20;;;24.30;71.30;;;;;;4973871;28;20544;-70
2023/07/16 01:20:26;;;;;;;2.33;2.13;;;24.30;71.20;;;;;;4963883;28;20205;-71
2023/07/16 01:22:54;;;;;;;2.63;2.42;;;24.30;71.10;;;;;;4973919;28;20209;-70
2023/07/16 01:25:48;;;;;;;2.30;2.20;;;24.30;71.10;;;;;;4957101;28;20189;-70
2023/07/16 01:28:41;;;;;;;2.22;2.03;;;24.30;71.10;;;;;;4957437;28;20224;-70
2023/07/16 01:31:10;;;;;;;2.28;2.08;;;24.30;70.90;;;;;;4957598;28;20189;-68
2023/07/16 01:33:42;;;;;;;2.40;1.98;;;24.30;70.90;;;;;;4950860;28;20228;-70
2023/07/16 01:36:08;;;;;;;1.92;1.83;;;24.30;70.80;;;;;;4973858;28;20205;-69
2023/07/16 01:38:36;;;;;;;2.20;2.00;;;24.30;70.70;;;;;;4973386;28;20228;-70
2023/07/16 01:41:02;;;;;;;2.20;2.00;;;24.30;70.80;;;;;;4957875;28;20280;-70
2023/07/16 01:43:28;;;;;;;1.90;1.80;;;24.30;70.70;;;;;;4973282;28;20206;-69
2023/07/16 01:45:54;;;;;;;1.70;1.60;;;24.30;70.70;;;;;;4972499;28;20197;-69
2023/07/16 01:48:36;;;;;;;2.15;2.05;;;24.30;70.70;;;;;;4962521;28;20224;-70
2023/07/16 01:51:04;;;;;;;1.90;1.80;;;24.30;70.70;;;;;;4957608;28;20186;-70
2023/07/16 01:53:31;;;;;;;2.33;2.20;;;24.30;70.60;;;;;;4973106;28;20260;-70
2023/07/16 01:55:57;;;;;;;2.00;1.88;;;24.30;70.60;;;;;;4956607;28;20196;-70
2023/07/16 01:58:23;;;;;;;2.05;1.90;;;24.30;70.50;;;;;;4957167;28;20197;-70
2023/07/16 02:00:50;;;;;;;1.95;1.85;;;24.30;70.50;;;;;;4971021;28;20248;-70
2023/07/16 02:03:16;;;;;;;1.88;1.73;;;24.30;70.50;;;;;;4975715;28;20210;-70
2023/07/16 02:05:42;;;;;;;1.90;1.80;;;24.30;70.50;;;;;;4958083;28;20202;-70
2023/07/16 02:08:10;;;;;;;2.25;1.80;;;24.30;70.40;;;;;;4955755;28;20217;-68
2023/07/16 02:10:35;;;;;;;2.00;1.90;;;24.30;70.40;;;;;;4945432;29;20190;-69
2023/07/16 02:13:01;;;;;;;1.80;1.70;;;24.30;70.40;;;;;;4968553;28;20249;-69
2023/07/16 02:15:27;;;;;;;1.75;1.65;;;24.30;70.40;;;;;;4971988;28;20181;-70
2023/07/16 02:17:53;;;;;;;2.20;2.00;;;24.30;70.40;;;;;;4953286;28;20597;-70
2023/07/16 02:20:19;;;;;;;2.13;1.92;;;24.30;70.60;;;;;;4970189;28;20193;-69
2023/07/16 02:22:46;;;;;;;1.88;1.77;;;24.30;70.40;;;;;;4972158;28;20231;-70
2023/07/16 02:25:11;;;;;;;1.80;1.70;;;24.30;70.40;;;;;;4971600;28;20563;-69
2023/07/16 02:27:38;;;;;;;2.05;1.85;;;24.30;70.40;;;;;;4956604;28;20300;-70
2023/07/16 02:30:06;;;;;;;1.90;1.80;;;24.30;70.40;;;;;;4973693;28;20272;-69
2023/07/16 02:32:33;;;;;;;1.60;1.50;;;24.20;70.30;;;;;;4964145;28;20228;-70
2023/07/16 02:35:02;;;;;;;1.67;1.58;;;24.30;70.40;;;;;;4972045;28;20193;-70
2023/07/16 02:37:29;;;;;;;2.15;1.70;;;24.20;70.30;;;;;;4972765;28;20202;-70
2023/07/16 02:39:56;;;;;;;1.90;1.80;;;24.30;70.40;;;;;;4969231;28;20198;-69
2023/07/16 02:42:23;;;;;;;1.77;1.67;;;24.30;70.30;;;;;;4955036;28;20201;-70
2023/07/16 02:44:50;;;;;;;1.65;1.55;;;24.30;70.30;;;;;;4955896;28;20200;-70
2023/07/16 02:47:16;;;;;;;1.83;1.73;;;24.20;70.30;;;;;;4972420;28;20218;-70
2023/07/16 02:49:41;;;;;;;2.85;2.00;;;24.20;70.20;;;;;;4953062;29;20194;-70
2023/07/16 02:52:07;;;;;;;1.83;1.73;;;24.30;70.30;;;;;;4968900;28;20296;-70
2023/07/16 02:54:36;;;;;;;1.67;1.58;;;24.20;70.20;;;;;;4955562;28;20214;-70
2023/07/16 02:57:02;;;;;;;1.63;1.52;;;24.30;70.40;;;;;;4952736;28;20202;-70
2023/07/16 02:59:28;;;;;;;1.85;1.70;;;24.30;70.40;;;;;;4956027;28;20200;-70
2023/07/16 03:01:54;;;;;;;1.75;1.65;;;24.20;70.30;;;;;;4956239;28;20201;-70
2023/07/16 03:04:20;;;;;;;1.50;1.40;;;24.20;70.30;;;;;;4971101;28;20205;-70
2023/07/16 03:06:46;;;;;;;1.70;1.60;;;24.20;70.30;;;;;;4955519;28;20596;-70
2023/07/16 03:09:11;;;;;;;1.80;1.70;;;24.20;70.30;;;;;;4971768;28;20196;-70
2023/07/16 03:11:37;;;;;;;1.40;1.30;;;24.20;70.30;;;;;;4971845;28;20189;-70
2023/07/16 03:14:03;;;;;;;1.65;1.55;;;24.20;70.30;;;;;;4964085;28;20240;-69
2023/07/16 03:16:29;;;;;;;1.88;1.77;;;24.20;70.30;;;;;;4969899;28;20201;-70
2023/07/16 03:18:55;;;;;;;1.55;1.45;;;24.20;70.30;;;;;;4971715;28;20196;-70
2023/07/16 03:21:20;;;;;;;1.38;1.35;;;24.20;70.20;;;;;;4959415;28;20191;-70
2023/07/16 03:23:47;;;;;;;1.45;1.35;;;24.20;70.20;;;;;;4963575;28;20205;-70
2023/07/16 03:26:14;;;;;;;1.60;1.50;;;24.20;70.30;;;;;;4954975;28;20212;-70
2023/07/16 03:28:40;;;;;;;1.50;1.40;;;24.20;70.20;;;;;;4972847;28;20210;-70
2023/07/16 03:31:08;;;;;;;1.60;1.50;;;24.20;70.20;;;;;;4956503;28;20186;-70
2023/07/16 03:33:36;;;;;;;1.65;1.55;;;24.20;70.20;;;;;;4957531;28;20345;-69
2023/07/16 03:36:03;;;;;;;1.70;1.60;;;24.20;70.20;;;;;;4955074;28;20739;-69
2023/07/16 03:38:29;;;;;;;1.58;1.48;;;24.20;70.20;;;;;;4971779;28;20204;-69
2023/07/16 03:40:55;;;;;;;1.50;1.40;;;24.20;70.20;;;;;;4963665;28;20194;-69
2023/07/16 03:43:21;;;;;;;1.42;1.33;;;24.20;70.20;;;;;;4971638;28;20232;-69
2023/07/16 03:45:50;;;;;;;1.33;1.23;;;24.20;70.20;;;;;;4960240;28;20186;-69
2023/07/16 03:48:15;;;;;;;1.83;1.50;;;24.20;70.20;;;;;;4968577;28;20293;-69
2023/07/16 03:50:41;;;;;;;1.48;1.38;;;24.20;70.20;;;;;;4970912;28;20285;-69
2023/07/16 03:53:08;;;;;;;1.40;1.30;;;24.20;70.30;;;;;;4971958;28;20209;-69
2023/07/16 03:55:35;;;;;;;1.40;1.30;;;24.20;70.30;;;;;;4954446;28;20189;-69
2023/07/16 03:58:01;;;;;;;1.65;1.35;;;24.20;70.30;;;;;;4971079;28;20236;-69
2023/07/16 04:00:27;;;;;;;1.67;1.58;;;24.20;70.20;;;;;;4967005;28;20213;-69
2023/07/16 04:02:53;;;;;;;1.42;1.33;;;24.20;70.20;;;;;;4954881;28;20211;-70
2023/07/16 04:05:19;;;;;;;1.50;1.40;;;24.20;70.30;;;;;;4953833;28;20194;-70
2023/07/16 04:07:45;;;;;;;1.10;1.10;;;24.20;70.30;;;;;;4960240;28;20300;-70
2023/07/16 04:10:10;;;;;;;1.67;1.58;;;24.20;70.30;;;;;;4967926;28;20264;-69
2023/07/16 04:12:36;;;;;;;1.23;1.13;;;24.10;70.20;;;;;;4970521;28;20288;-70
2023/07/16 04:15:10;;;;;;;1.58;1.48;;;24.20;70.30;;;;;;4953766;28;20186;-69
2023/07/16 04:17:36;;;;;;;2.03;1.48;;;24.10;70.20;;;;;;4955096;28;20189;-69
2023/07/16 04:20:03;;;;;;;1.50;1.40;;;24.10;70.20;;;;;;4970929;28;20204;-69
2023/07/16 04:22:28;;;;;;;1.63;1.52;;;24.10;70.20;;;;;;4970272;28;20218;-69
2023/07/16 04:24:54;;;;;;;1.30;1.20;;;24.10;70.20;;;;;;4954112;28;20663;-69
2023/07/16 04:27:20;;;;;;;1.85;1.60;;;24.10;70.10;;;;;;4970806;28;20222;-70
2023/07/16 04:29:46;;;;;;;1.40;1.20;;;24.10;70.20;;;;;;4970969;28;20564;-69
2023/07/16 04:32:11;;;;;;;1.30;1.20;;;24.10;70.20;;;;;;4971000;28;20185;-70
2023/07/16 04:34:37;;;;;;;1.45;1.35;;;24.20;70.40;;;;;;4969876;28;20213;-69
2023/07/16 04:37:03;;;;;;;1.35;1.25;;;24.10;70.20;;;;;;4962210;28;20582;-69
2023/07/16 04:39:29;;;;;;;1.30;1.20;;;24.10;70.20;;;;;;4952993;28;20209;-70
2023/07/16 04:41:55;;;;;;;1.45;1.35;;;24.20;70.30;;;;;;4970709;28;20193;-69
2023/07/16 04:44:20;;;;;;;1.60;1.50;;;24.10;70.20;;;;;;4953982;28;20217;-70
2023/07/16 04:46:46;;;;;;;1.50;1.40;;;24.10;70.20;;;;;;4968366;28;20213;-70
2023/07/16 04:49:12;;;;;;;1.13;1.13;;;24.10;70.20;;;;;;4970273;28;20185;-70
2023/07/16 04:51:38;;;;;;;1.48;1.33;;;24.10;70.20;;;;;;4970516;28;20197;-69
2023/07/16 04:54:03;;;;;;;1.15;1.10;;;24.10;70.20;;;;;;4960961;28;20212;-69
2023/07/16 04:56:29;;;;;;;1.02;0.95;;;24.10;70.30;;;;;;4963384;28;20202;-70
2023/07/16 04:58:55;;;;;;;1.52;1.42;;;24.10;70.30;;;;;;4960811;28;20186;-70
2023/07/16 05:01:21;;;;;;;1.33;1.25;;;24.10;70.30;;;;;;4970347;28;20282;-70
2023/07/16 05:03:47;;;;;;;1.42;1.33;;;24.10;70.20;;;;;;4970951;28;20215;-70
2023/07/16 05:06:13;;;;;;;1.27;1.17;;;24.10;70.30;;;;;;4969872;28;20217;-70
2023/07/16 05:08:38;;;;;;;1.40;1.20;;;24.10;70.30;;;;;;4953398;28;20248;-70
2023/07/16 05:11:04;;;;;;;1.42;1.33;;;24.10;70.30;;;;;;4954530;28;20693;-70
2023/07/16 05:13:30;;;;;;;1.20;1.20;;;24.10;70.30;;;;;;4966544;28;20211;-69
2023/07/16 05:15:56;;;;;;;1.40;1.33;;;24.10;70.30;;;;;;4969458;28;20671;-68
2023/07/16 05:18:22;;;;;;;1.30;1.20;;;24.10;70.30;;;;;;4969982;28;20194;-70
2023/07/16 05:20:49;;;;;;;1.40;1.30;;;24.10;70.30;;;;;;4970546;28;20269;-70
2023/07/16 05:23:14;;;;;;;1.50;1.40;;;24.10;70.30;;;;;;4962911;28;20218;-69
2023/07/16 05:25:50;;;;;;;1.60;1.50;;;24.10;70.30;;;;;;4953263;28;20224;-68
2023/07/16 05:28:19;;;;;;;1.30;1.20;;;24.10;70.30;;;;;;4970331;28;20217;-70
2023/07/16 05:30:45;;;;;;;1.10;1.10;;;24.10;71.00;;;;;;4970171;28;20695;-69
2023/07/16 05:33:11;;;;;;;1.50;1.40;;;24.10;70.30;;;;;;4970382;28;20592;-70
2023/07/16 05:35:39;;;;;;;1.40;1.30;;;24.10;70.30;;;;;;4972563;28;20201;-69
2023/07/16 05:38:04;;;;;;;1.67;1.45;;;24.10;70.30;;;;;;4974327;28;20185;-70
2023/07/16 05:40:30;;;;;;;1.30;1.20;;;24.10;70.30;;;;;;4975660;28;20275;-69
2023/07/16 05:42:56;;;;;;;1.42;1.33;;;24.10;70.30;;;;;;4973341;28;20233;-69
2023/07/16 05:45:23;;;;;;;1.50;1.40;;;24.10;70.30;;;;;;4956210;28;20244;-66
2023/07/16 05:47:49;;;;;;;1.33;1.23;;;24.10;70.30;;;;;;4956184;28;20656;-69
2023/07/16 05:50:14;;;;;;;1.45;1.35;;;24.10;70.30;;;;;;4971861;28;20225;-69
2023/07/16 05:52:40;;;;;;;1.30;1.20;;;24.10;70.30;;;;;;4971482;28;20229;-69
2023/07/16 05:55:06;;;;;;;1.20;1.20;;;24.10;70.30;;;;;;4972240;28;20193;-69
2023/07/16 05:57:32;;;;;;;1.13;1.13;;;24.10;70.30;;;;;;4953082;28;20205;-69
2023/07/16 05:59:58;;;;;;;1.27;1.17;;;24.10;70.20;;;;;;4973075;28;20197;-69
2023/07/16 06:02:24;;;;;;;2.17;1.30;;;24.10;70.20;;;;;;4966540;28;20766;-68
2023/07/16 06:04:49;;;;;;;1.23;1.20;;;24.10;70.20;;;;;;4972932;28;20190;-69
2023/07/16 06:07:16;;;;;;;1.40;1.30;;;24.10;70.30;;;;;;4973468;28;20213;-69
2023/07/16 06:09:42;;;;;;;1.30;1.20;;;24.10;70.20;;;;;;4974053;28;20583;-69
2023/07/16 06:12:08;;;;;;;1.10;1.10;;;24.10;70.20;;;;;;4957079;28;20190;-69
2023/07/16 06:14:34;;;;;;;1.08;1.08;;;24.10;70.20;;;;;;4972027;28;20221;-69
2023/07/16 06:17:00;;;;;;;1.00;1.00;;;24.10;70.20;;;;;;4972481;28;20189;-69
2023/07/16 06:19:26;;;;;;;1.30;1.20;;;24.10;70.20;;;;;;4972416;28;20233;-69
2023/07/16 06:21:52;;;;;;;1.40;1.30;;;24.10;70.20;;;;;;4972967;28;20190;-67
2023/07/16 06:24:18;;;;;;;1.08;1.08;;;24.10;70.20;;;;;;4964860;28;20261;-69
2023/07/16 06:26:43;;;;;;;1.20;1.10;;;24.10;70.20;;;;;;4972397;28;20240;-69
2023/07/16 06:29:09;;;;;;;1.38;1.25;;;24.10;70.20;;;;;;4964256;28;20193;-69
2023/07/16 06:31:36;;;;;;;1.27;1.17;;;24.10;70.20;;;;;;4970239;28;20232;-69
2023/07/16 06:34:02;;;;;;;1.10;1.10;;;24.10;70.20;;;;;;4965528;28;20257;-69
2023/07/16 06:36:27;;;;;;;1.40;1.30;;;24.10;70.20;;;;;;4967215;28;20190;-70
2023/07/16 06:38:55;;;;;;;1.42;1.33;;;24.10;70.10;;;;;;4952306;28;20242;-69
2023/07/16 06:41:25;;;;;;;1.13;1.02;;;24.10;70.10;;;;;;4972218;28;20217;-68
2023/07/16 06:43:51;;;;;;;1.42;1.33;;;24.10;70.10;;;;;;4953042;28;20217;-70
2023/07/16 06:46:17;;;;;;;1.23;1.17;;;24.10;70.10;;;;;;4951728;28;20193;-69
2023/07/16 06:48:43;;;;;;;1.40;1.30;;;24.10;70.10;;;;;;4970413;28;20217;-70
2023/07/16 06:51:09;;;;;;;1.50;1.20;;;24.10;70.00;;;;;;4965542;28;20657;-69
2023/07/16 06:53:35;;;;;;;0.98;0.98;;;24.10;70.00;;;;;;4952460;28;20237;-70
2023/07/16 06:56:02;;;;;;;1.08;1.08;;;24.10;70.00;;;;;;4965861;28;20402;-69
2023/07/16 06:58:35;;;;;;;1.30;1.20;;;24.10;70.00;;;;;;4949585;28;20197;-69
2023/07/16 07:01:01;;;;;;;1.30;1.20;;;24.10;69.90;;;;;;4967938;28;20251;-70
2023/07/16 07:03:27;;;;;;;1.30;1.20;;;24.10;69.80;;;;;;4969766;28;20217;-70
2023/07/16 07:05:53;;;;;;;1.10;1.02;;;24.10;69.70;;;;;;4970432;28;20193;-69
2023/07/16 07:08:18;;;;;;;1.35;1.30;;;24.10;69.70;;;;;;4968691;28;20603;-69
2023/07/16 07:10:46;;;;;;;1.45;1.27;;;24.20;69.80;;;;;;4971239;28;20212;-69
2023/07/16 07:13:11;;;;;;;1.20;1.10;;;24.10;69.80;;;;;;4970870;28;20232;-70
2023/07/16 07:15:37;;;;;;;1.45;1.35;;;24.10;69.70;;;;;;4952066;28;20222;-69
2023/07/16 07:18:03;;;;;;;1.88;1.30;;;24.10;69.80;;;;;;4971205;28;20585;-70
2023/07/16 07:20:29;;;;;;;1.48;1.20;;;24.10;69.70;;;;;;4970725;28;20208;-69
2023/07/16 07:22:55;;;;;;;1.50;1.40;;;24.10;69.80;;;;;;4956484;28;20212;-69
2023/07/16 07:25:21;;;;;;;1.00;1.00;;;24.10;69.80;;;;;;4970579;28;20224;-70
2023/07/16 07:27:46;;;;;;;1.48;1.27;;;24.10;69.70;;;;;;4953898;28;20221;-69
2023/07/16 07:30:12;;;;;;;1.25;1.15;;;24.10;69.70;;;;;;4954830;28;20189;-70
2023/07/16 07:32:41;;;;;;;1.48;1.10;;;24.10;69.60;;;;;;4952170;28;20188;-69
2023/07/16 07:35:07;;;;;;;1.30;1.20;;;24.10;69.60;;;;;;4952828;28;20197;-69
2023/07/16 07:37:33;;;;;;;1.27;1.17;;;24.20;69.60;;;;;;4951335;28;20193;-69
2023/07/16 07:39:59;;;;;;;1.30;1.20;;;24.20;69.60;;;;;;4951526;28;20659;-70
2023/07/16 07:42:26;;;;;;;1.10;1.10;;;24.20;69.50;;;;;;4951255;28;20277;-69
2023/07/16 07:44:53;;;;;;;1.48;1.27;;;24.20;69.50;;;;;;4948323;28;20277;-69
2023/07/16 07:47:19;;;;;;;1.17;1.17;;;24.20;69.40;;;;;;4968969;28;20249;-70
2023/07/16 07:49:45;;;;;;;1.30;1.20;;;24.20;69.40;;;;;;4952341;28;20216;-69
2023/07/16 07:52:13;;;;;;;1.23;1.00;;;24.20;69.50;;;;;;4967725;28;20193;-70
2023/07/16 07:54:39;;;;;;;2.00;1.17;;;24.20;69.50;;;;;;4952359;28;20210;-67
2023/07/16 07:57:06;;;;;;;1.40;1.30;;;24.20;69.50;;;;;;4969979;28;20196;-70
2023/07/16 07:59:32;;;;;;;1.60;1.15;;;24.20;69.40;;;;;;4969579;28;20197;-69
2023/07/16 08:01:59;;;;;;;1.38;1.27;;;24.20;69.40;;;;;;4969777;28;20325;-68
2023/07/16 08:04:25;;;;;;;1.33;1.23;;;24.20;69.50;;;;;;4952956;28;20225;-70
2023/07/16 08:06:53;;;;;;;1.35;1.25;;;24.20;69.40;;;;;;4969129;28;20189;-70
2023/07/16 08:09:19;;;;;;;1.20;1.10;;;24.30;69.50;;;;;;4951606;28;20190;-70
2023/07/16 08:11:45;;;;;;;1.77;1.50;;;24.20;69.40;;;;;;4952335;28;20182;-69
2023/07/16 08:14:11;;;;;;;1.48;1.38;;;24.20;69.50;;;;;;4952356;28;20205;-70
2023/07/16 08:16:37;;;;;;;1.73;1.30;;;24.20;69.40;;;;;;4951968;28;20477;-70
2023/07/16 08:19:03;;;;;;;2.40;1.63;;;24.20;69.40;;;;;;4951729;28;20188;-70
2023/07/16 08:21:29;;;;;;;1.73;1.27;;;24.30;69.50;;;;;;4969214;28;20221;-70
2023/07/16 08:23:54;;;;;;;1.38;1.27;;;24.30;69.40;;;;;;4952816;28;20232;-70
2023/07/16 08:26:20;;;;;;;1.40;1.30;;;24.30;69.40;;;;;;4969145;28;20197;-69
2023/07/16 08:28:46;;;;;;;2.15;1.58;;;24.30;69.40;;;;;;4967145;28;20221;-70
2023/07/16 08:31:15;;;;;;;2.22;1.30;;;24.30;69.50;;;;;;4969454;28;20261;-70
2023/07/16 08:33:41;;;;;;;1.58;1.40;;;24.30;69.50;;;;;;4969124;28;20221;-70
2023/07/16 08:36:07;;;;;;;1.85;1.38;;;24.30;69.50;;;;;;4951709;28;20193;-72
2023/07/16 08:38:33;;;;;;;2.03;1.40;;;24.30;69.40;;;;;;4971812;28;20672;-70
2023/07/16 08:41:00;;;;;;;1.08;1.08;;;24.30;69.40;;;;;;4954874;28;20197;-70
2023/07/16 08:43:29;;;;;;;2.05;1.50;;;24.30;69.40;;;;;;4954503;28;20341;-69
2023/07/16 08:45:55;;;;;;;1.55;1.40;;;24.20;69.40;;;;;;4953268;28;20185;-70
2023/07/16 08:48:22;;;;;;;1.73;1.63;;;24.30;69.60;;;;;;4953962;28;20209;-70
2023/07/16 08:50:49;;;;;;;1.45;1.30;;;24.30;69.50;;;;;;4953813;28;20194;-69
2023/07/16 08:53:18;;;;;;;2.55;1.48;;;24.20;69.40;;;;;;4954444;28;20210;-70
2023/07/16 08:55:47;;;;;;;1.38;1.27;;;24.30;69.50;;;;;;4953364;28;20345;-72
2023/07/16 08:58:16;;;;;;;1.50;1.25;;;24.20;69.40;;;;;;4970498;28;20253;-70
2023/07/16 09:00:44;;;;;;;1.20;1.13;;;24.30;69.50;;;;;;4969832;28;20224;-71
2023/07/16 09:03:16;;;;;;;1.33;1.23;;;24.30;69.50;;;;;;4951878;28;20234;-71
2023/07/16 09:05:44;;;;;;;1.48;1.38;;;24.30;69.50;;;;;;4967708;28;20196;-71
2023/07/16 09:08:10;;;;;;;1.42;1.27;;;24.30;69.50;;;;;;4969833;28;20244;-70
2023/07/16 09:10:36;;;;;;;1.38;1.17;;;24.30;69.50;;;;;;4971276;28;20230;-70
2023/07/16 09:13:02;;;;;;;1.70;1.27;;;24.30;69.40;;;;;;4970590;28;20197;-71
2023/07/16 09:15:29;;;;;;;1.55;1.35;;;24.30;69.40;;;;;;4971541;28;20577;-71
2023/07/16 09:17:56;;;;;;;1.60;1.50;;;24.30;69.40;;;;;;4973208;28;20181;-70
2023/07/16 09:20:25;;;;;;;1.42;1.33;;;24.30;69.60;;;;;;4955294;28;20201;-70
2023/07/16 09:22:57;;;;;;;1.42;1.25;;;24.30;69.50;;;;;;4970267;28;20222;-70
2023/07/16 09:25:29;;;;;;;1.40;1.30;;;24.30;69.50;;;;;;4972034;28;20193;-70
2023/07/16 09:27:58;;;;;;;2.60;1.42;;;24.30;69.40;;;;;;4972884;28;20229;-69
2023/07/16 09:30:24;;;;;;;1.42;1.30;;;24.20;69.30;;;;;;4960023;28;20177;-70
2023/07/16 09:32:50;;;;;;;1.30;1.20;;;24.30;69.40;;;;;;4956456;28;20251;-70
2023/07/16 09:35:17;;;;;;;2.95;1.60;;;24.30;69.40;;;;;;4955620;28;20240;-70
2023/07/16 09:37:43;;;;;;;1.60;1.50;;;24.30;69.40;;;;;;4956693;28;20185;-70
2023/07/16 09:40:12;;;;;;;1.85;1.27;;;24.30;69.40;;;;;;4974198;28;20202;-70
2023/07/16 09:42:41;;;;;;;1.85;1.52;;;24.30;69.40;;;;;;4974260;28;20198;-70
2023/07/16 09:45:18;;;;;;;1.67;1.40;;;24.30;69.40;;;;;;4972754;28;20220;-70
2023/07/16 09:47:44;;;;;;;2.28;1.40;;;24.30;69.40;;;;;;4956203;28;20205;-70
2023/07/16 09:50:11;;;;;;;1.50;1.40;;;24.30;69.30;;;;;;4972682;28;20273;-70
2023/07/16 09:52:39;;;;;;;1.88;1.45;;;24.30;69.30;;;;;;4956753;28;20272;-70
2023/07/16 09:55:09;;;;;;;1.30;1.20;;;24.30;69.40;;;;;;4971729;28;20200;-71
2023/07/16 09:57:39;;;;;;;1.30;1.20;;;24.30;69.40;;;;;;4956808;28;20197;-69
2023/07/16 10:00:13;;;;;;;1.65;1.55;;;24.30;69.30;;;;;;4972294;28;20229;-69
2023/07/16 10:02:41;;;;;;;1.35;1.25;;;24.30;69.30;;;;;;4972126;28;20205;-70
2023/07/16 10:05:18;;;;;;;1.42;1.33;;;24.30;69.20;;;;;;4972497;28;20185;-71
2023/07/16 10:07:51;;;;;;;1.75;1.65;;;24.30;69.10;;;;;;4972160;28;20287;-70
2023/07/16 10:10:17;;;;;;;1.35;1.25;;;24.30;69.00;;;;;;4957642;28;20210;-69
2023/07/16 10:12:56;;;;;;;1.50;1.40;;;24.30;69.00;;;;;;4953510;28;20208;-71
2023/07/16 10:15:29;;;;;;;1.40;1.30;;;24.30;69.00;;;;;;4970800;28;20193;-71
2023/07/16 10:17:56;;;;;;;1.60;1.50;;;24.30;69.00;;;;;;4955505;28;20210;-71
2023/07/16 10:20:42;;;;;;;1.35;1.23;;;24.30;69.00;;;;;;4970792;28;20181;-70
2023/07/16 10:23:16;;;;;;;1.60;1.50;;;24.30;69.00;;;;;;4971758;28;20221;-70
2023/07/16 10:26:05;;;;;;;1.50;1.40;;;24.30;69.00;;;;;;4971338;28;20201;-71
2023/07/16 10:28:33;;;;;;;1.65;1.55;;;24.30;68.90;;;;;;4971908;28;20217;-70
2023/07/16 10:30:59;;;;;;;1.75;1.50;;;24.30;69.00;;;;;;4971844;28;20193;-70
2023/07/16 10:33:25;;;;;;;1.50;1.13;;;24.30;68.90;;;;;;4971906;28;20202;-71
2023/07/16 10:35:51;;;;;;;1.52;1.42;;;24.30;68.80;;;;;;4970965;28;20237;-71
2023/07/16 10:38:17;;;;;;;1.20;1.08;;;24.30;68.80;;;;;;4971450;28;20225;-70
2023/07/16 10:40:46;;;;;;;1.50;1.40;;;24.30;68.70;;;;;;4955591;28;20190;-70
2023/07/16 10:43:15;;;;;;;1.40;1.30;;;24.30;68.70;;;;;;4955360;28;20217;-71
2023/07/16 10:45:41;;;;;;;1.67;1.33;;;24.30;68.60;;;;;;4954209;28;20213;-70
2023/07/16 10:48:07;;;;;;;1.70;1.60;;;24.30;68.60;;;;;;4972783;28;20583;-70
2023/07/16 10:50:34;;;;;;;1.25;1.15;;;24.30;68.70;;;;;;4971613;28;20648;-71
2023/07/16 10:53:01;;;;;;;1.92;1.58;;;24.30;68.60;;;;;;4954840;28;20206;-70
2023/07/16 10:55:29;;;;;;;1.70;1.60;;;24.30;68.80;;;;;;4970121;28;20182;-69
2023/07/16 10:57:56;;;;;;;1.42;1.30;;;24.30;68.60;;;;;;4972328;28;20251;-70
2023/07/16 11:00:22;;;;;;;2.35;1.65;;;24.30;68.70;;;;;;4957370;28;20198;-71
2023/07/16 11:02:51;;;;;;;1.50;1.40;;;24.30;68.60;;;;;;4971137;28;20224;-71
2023/07/16 11:05:18;;;;;;;1.55;1.20;;;24.30;68.60;;;;;;4971622;28;20225;-73
2023/07/16 11:07:48;;;;;;;1.52;1.42;;;24.30;68.60;;;;;;4957979;28;20214;-72
2023/07/16 11:10:18;;;;;;;1.70;1.60;;;24.30;68.60;;;;;;4971003;28;20185;-71
2023/07/16 11:12:44;;;;;;;1.98;1.60;;;24.30;68.60;;;;;;4971693;28;20209;-70
2023/07/16 11:15:10;;;;;;;1.30;1.20;;;24.30;68.60;;;;;;4954656;28;20221;-72
2023/07/16 11:17:39;;;;;;;1.92;1.58;;;24.30;68.60;;;;;;4955023;28;20284;-71
2023/07/16 11:20:09;;;;;;;1.65;1.55;;;24.30;68.60;;;;;;4969439;28;20198;-72
2023/07/16 11:22:38;;;;;;;1.83;1.73;;;24.30;68.60;;;;;;4951093;28;20209;-71
2023/07/16 11:25:11;;;;;;;2.05;1.48;;;24.30;68.50;;;;;;4954027;28;20193;-72
2023/07/16 11:27:41;;;;;;;1.65;1.40;;;24.30;68.50;;;;;;4971096;28;20308;-71
2023/07/16 11:30:07;;;;;;;1.48;1.38;;;24.30;68.50;;;;;;4972499;28;20551;-72
2023/07/16 11:32:45;;;;;;;1.60;1.50;;;24.30;68.40;;;;;;4955017;28;20189;-71
2023/07/16 11:35:18;;;;;;;1.60;1.50;;;24.30;68.40;;;;;;4962737;28;20189;-72
2023/07/16 11:37:46;;;;;;;1.63;1.52;;;24.40;68.50;;;;;;4971205;28;20224;-72
2023/07/16 11:40:17;;;;;;;1.38;1.27;;;24.30;68.40;;;;;;4970837;28;20200;-71
2023/07/16 11:42:44;;;;;;;1.50;1.40;;;24.30;68.50;;;;;;4970709;28;20252;-71
2023/07/16 11:45:27;;;;;;;2.13;1.63;;;24.30;68.40;;;;;;4970146;28;20201;-71
2023/07/16 11:47:54;;;;;;;1.77;1.67;;;24.30;68.40;;;;;;4954747;28;20213;-73
2023/07/16 11:50:20;;;;;;;1.58;1.48;;;24.30;68.40;;;;;;4971660;28;20182;-72
2023/07/16 11:52:54;;;;;;;1.77;1.67;;;24.40;68.30;;;;;;4954739;28;20272;-73
2023/07/16 11:55:20;;;;;;;1.70;1.42;;;24.30;68.30;;;;;;4971288;28;20197;-72
2023/07/16 11:57:46;;;;;;;1.73;1.50;;;24.30;68.30;;;;;;4970708;28;20201;-73
2023/07/16 12:00:12;;;;;;;1.60;1.50;;;24.40;68.40;;;;;;4954901;28;20196;-72
2023/07/16 12:02:38;;;;;;;1.60;1.50;;;24.30;68.40;;;;;;4963427;28;20212;-71
2023/07/16 12:05:04;;;;;;;1.38;1.27;;;24.30;68.30;;;;;;4952722;28;20575;-72
2023/07/16 12:07:36;;;;;;;1.55;1.42;;;24.30;68.30;;;;;;4970436;28;20366;-71
2023/07/16 12:10:05;;;;;;;1.90;1.50;;;24.30;68.20;;;;;;4970065;28;20223;-71
2023/07/16 12:12:31;;;;;;;1.55;1.45;;;24.30;68.20;;;;;;4970520;28;20207;-72
2023/07/16 12:14:57;;;;;;;1.38;1.27;;;24.30;68.30;;;;;;4969447;28;20185;-73
2023/07/16 12:17:22;;;;;;;1.65;1.50;;;24.30;68.20;;;;;;4954309;28;20648;-72
2023/07/16 12:19:49;;;;;;;1.58;1.48;;;24.30;68.20;;;;;;4956230;28;20194;-70
2023/07/16 12:22:18;;;;;;;1.63;1.52;;;24.30;68.20;;;;;;4951021;28;20571;-71
2023/07/16 12:24:44;;;;;;;1.40;1.30;;;24.30;68.20;;;;;;4966279;28;20228;-71
2023/07/16 12:27:10;;;;;;;1.98;1.77;;;24.30;68.20;;;;;;4969767;28;20252;-71
2023/07/16 12:29:36;;;;;;;2.15;1.30;;;24.30;68.20;;;;;;4962513;28;20222;-72
2023/07/16 12:32:02;;;;;;;2.08;1.70;;;24.30;68.20;;;;;;4970625;28;20186;-73
2023/07/16 12:34:28;;;;;;;1.90;1.58;;;24.30;68.10;;;;;;4969496;28;20297;-73
2023/07/16 12:36:55;;;;;;;1.90;1.65;;;24.30;68.10;;;;;;4953501;28;20197;-72
2023/07/16 12:39:21;;;;;;;1.55;1.45;;;24.30;68.10;;;;;;4953720;28;20332;-73
2023/07/16 12:41:47;;;;;;;1.58;1.48;;;24.40;68.20;;;;;;4943407;28;20248;-72
2023/07/16 12:44:13;;;;;;;1.33;1.23;;;24.30;68.10;;;;;;4972003;28;20197;-72
2023/07/16 12:46:38;;;;;;;1.75;1.50;;;24.30;68.00;;;;;;4973242;28;20197;-72
2023/07/16 12:49:04;;;;;;;2.00;1.85;;;24.30;68.00;;;;;;4973700;28;20224;-72